createdAt,value
2023-01-08T00:00:02.841Z,7.18
2023-01-08T00:01:02.883Z,7.21
2023-01-08T00:02:02.863Z,7.07
2023-01-08T00:03:02.971Z,7.10
2023-01-08T00:04:02.966Z,7.05
2023-01-08T00:05:02.905Z,7.10
2023-01-08T00:06:02.927Z,7.07
2023-01-08T00:07:02.926Z,7.10
2023-01-08T00:08:02.937Z,7.08
2023-01-08T00:09:02.957Z,7.10
2023-01-08T00:10:02.966Z,7.10
2023-01-08T00:11:02.976Z,7.10
2023-01-08T00:12:02.995Z,7.10
2023-01-08T00:13:02.998Z,7.10
2023-01-08T00:14:03.017Z,7.10
2023-01-08T00:15:03.025Z,7.08
2023-01-08T00:16:03.042Z,7.14
2023-01-08T00:17:03.051Z,7.04
2023-01-08T00:18:04.118Z,7.07
2023-01-08T00:19:03.070Z,7.05
2023-01-08T00:20:03.083Z,7.11
2023-01-08T00:21:03.104Z,7.10
2023-01-08T00:22:03.108Z,7.00
2023-01-08T00:23:03.122Z,6.97
2023-01-08T00:24:03.132Z,7.04
2023-01-08T00:25:03.147Z,7.01
2023-01-08T00:26:03.156Z,7.10
2023-01-08T00:27:03.178Z,6.95
2023-01-08T00:28:03.184Z,6.92
2023-01-08T00:29:03.193Z,6.95
2023-01-08T00:30:03.209Z,6.93
2023-01-08T00:31:03.847Z,6.92
2023-01-08T00:32:03.228Z,6.95
2023-01-08T00:33:03.246Z,7.01
2023-01-08T00:34:03.266Z,6.95
2023-01-08T00:35:03.266Z,6.92
2023-01-08T00:36:03.276Z,6.93
2023-01-08T00:37:03.289Z,6.86
2023-01-08T00:38:03.308Z,6.89
2023-01-08T00:39:03.314Z,6.85
2023-01-08T00:40:03.324Z,6.85
2023-01-08T00:41:03.343Z,6.90
2023-01-08T00:42:03.350Z,6.92
2023-01-08T00:43:03.371Z,6.78
2023-01-08T00:44:03.370Z,6.92
2023-01-08T00:45:03.391Z,6.83
2023-01-08T00:46:03.483Z,6.85
2023-01-08T00:47:03.409Z,6.78
2023-01-08T00:48:03.419Z,6.77
2023-01-08T00:49:03.439Z,6.77
2023-01-08T00:50:03.450Z,6.75
2023-01-08T00:51:03.454Z,6.77
2023-01-08T00:52:03.467Z,6.70
2023-01-08T00:53:03.488Z,6.71
2023-01-08T00:54:03.510Z,6.72
2023-01-08T00:55:03.517Z,6.68
2023-01-08T00:56:03.514Z,6.68
2023-01-08T00:57:03.539Z,6.59
2023-01-08T00:58:03.542Z,6.60
2023-01-08T00:59:03.550Z,6.60
2023-01-08T01:00:03.569Z,6.60
2023-01-08T01:01:03.627Z,6.52
2023-01-08T01:02:03.725Z,6.52
2023-01-08T01:03:03.604Z,6.56
2023-01-08T01:04:03.670Z,6.54
2023-01-08T01:05:03.620Z,6.47
2023-01-08T01:06:03.646Z,6.50
2023-01-08T01:07:03.647Z,6.46
2023-01-08T01:08:03.674Z,6.49
2023-01-08T01:09:03.669Z,6.53
2023-01-08T01:10:03.679Z,6.49
2023-01-08T01:11:03.699Z,6.44
2023-01-08T01:12:03.714Z,6.47
2023-01-08T01:13:03.719Z,6.41
2023-01-08T01:14:03.734Z,6.47
2023-01-08T01:15:03.737Z,6.43
2023-01-08T01:16:03.758Z,6.34
2023-01-08T01:17:03.810Z,6.34
2023-01-08T01:18:03.785Z,6.28
2023-01-08T01:19:03.798Z,6.28
2023-01-08T01:20:03.798Z,6.31
2023-01-08T01:21:03.813Z,6.31
2023-01-08T01:22:03.820Z,6.35
2023-01-08T01:23:03.837Z,6.22
2023-01-08T01:24:03.843Z,6.17
2023-01-08T01:25:03.852Z,6.22
2023-01-08T01:26:03.865Z,6.22
2023-01-08T01:27:03.887Z,6.16
2023-01-08T01:28:03.916Z,6.19
2023-01-08T01:29:03.897Z,6.16
2023-01-08T01:30:03.912Z,6.20
2023-01-08T01:31:03.981Z,6.20
2023-01-08T01:32:03.940Z,6.20
2023-01-08T01:33:03.947Z,6.13
2023-01-08T01:34:03.956Z,6.09
2023-01-08T01:35:03.979Z,6.02
2023-01-08T01:36:03.977Z,6.01
2023-01-08T01:37:03.992Z,6.10
2023-01-08T01:38:04.004Z,6.09
2023-01-08T01:39:04.013Z,6.07
2023-01-08T01:40:04.027Z,5.98
2023-01-08T01:41:04.036Z,5.94
2023-01-08T01:42:04.061Z,6.01
2023-01-08T01:43:04.063Z,5.87
2023-01-08T01:44:04.072Z,5.91
2023-01-08T01:45:04.081Z,5.94
2023-01-08T01:46:04.197Z,5.90
2023-01-08T01:47:04.104Z,5.91
2023-01-08T01:48:04.121Z,5.84
2023-01-08T01:49:04.129Z,5.74
2023-01-08T01:50:04.143Z,5.87
2023-01-08T01:51:04.154Z,5.84
2023-01-08T01:52:04.162Z,5.81
2023-01-08T01:53:04.173Z,5.76
2023-01-08T01:54:04.189Z,5.73
2023-01-08T01:55:04.196Z,5.77
2023-01-08T01:56:04.214Z,5.74
2023-01-08T01:57:04.221Z,5.65
2023-01-08T01:58:04.240Z,5.59
2023-01-08T01:59:04.250Z,5.67
2023-01-08T02:00:04.249Z,5.58
2023-01-08T02:01:04.360Z,5.62
2023-01-08T02:02:04.442Z,5.56
2023-01-08T02:03:04.283Z,5.54
2023-01-08T02:04:04.400Z,5.58
2023-01-08T02:05:04.319Z,5.47
2023-01-08T02:06:04.323Z,5.55
2023-01-08T02:07:04.347Z,5.64
2023-01-08T02:08:04.341Z,5.47
2023-01-08T02:09:04.356Z,5.47
2023-01-08T02:10:04.361Z,5.51
2023-01-08T02:11:04.373Z,5.52
2023-01-08T02:12:04.388Z,5.51
2023-01-08T02:13:04.402Z,5.52
2023-01-08T02:14:04.416Z,5.37
2023-01-08T02:15:04.415Z,5.36
2023-01-08T02:16:04.431Z,5.36
2023-01-08T02:17:04.491Z,5.31
2023-01-08T02:18:04.449Z,5.28
2023-01-08T02:19:04.460Z,5.26
2023-01-08T02:20:04.469Z,5.29
2023-01-08T02:21:04.481Z,5.25
2023-01-08T02:22:04.497Z,5.20
2023-01-08T02:23:04.501Z,5.20
2023-01-08T02:24:04.511Z,5.20
2023-01-08T02:25:04.527Z,5.19
2023-01-08T02:26:04.544Z,5.19
2023-01-08T02:27:04.549Z,5.18
2023-01-08T02:28:04.552Z,5.18
2023-01-08T02:29:04.571Z,5.12
2023-01-08T02:30:04.583Z,5.18
2023-01-08T02:31:04.665Z,5.10
2023-01-08T02:32:04.600Z,5.13
2023-01-08T02:33:04.607Z,5.13
2023-01-08T02:34:04.617Z,5.04
2023-01-08T02:35:04.643Z,5.08
2023-01-08T02:36:04.638Z,4.97
2023-01-08T02:37:04.650Z,5.02
2023-01-08T02:38:04.662Z,5.02
2023-01-08T02:39:04.670Z,5.01
2023-01-08T02:40:04.695Z,4.95
2023-01-08T02:41:04.694Z,5.01
2023-01-08T02:42:04.705Z,5.00
2023-01-08T02:43:04.716Z,4.95
2023-01-08T02:44:04.725Z,4.94
2023-01-08T02:45:04.739Z,5.00
2023-01-08T02:46:04.836Z,4.90
2023-01-08T02:47:04.760Z,4.92
2023-01-08T02:48:04.766Z,4.90
2023-01-08T02:49:04.796Z,4.92
2023-01-08T02:50:04.787Z,4.92
2023-01-08T02:51:04.801Z,4.95
2023-01-08T02:52:04.810Z,4.92
2023-01-08T02:53:04.822Z,4.94
2023-01-08T02:54:04.837Z,4.90
2023-01-08T02:55:04.859Z,4.94
2023-01-08T02:56:04.853Z,4.89
2023-01-08T02:57:04.868Z,4.89
2023-01-08T02:58:04.875Z,4.92
2023-01-08T02:59:04.889Z,4.90
2023-01-08T03:00:04.891Z,4.87
2023-01-08T03:01:04.958Z,4.87
2023-01-08T03:02:05.060Z,4.76
2023-01-08T03:03:04.962Z,4.82
2023-01-08T03:04:04.968Z,4.79
2023-01-08T03:05:04.952Z,4.67
2023-01-08T03:06:04.957Z,4.67
2023-01-08T03:07:04.967Z,4.83
2023-01-08T03:08:04.979Z,4.75
2023-01-08T03:09:04.986Z,4.68
2023-01-08T03:10:05.003Z,4.75
2023-01-08T03:11:05.024Z,4.71
2023-01-08T03:12:05.020Z,4.76
2023-01-08T03:13:05.029Z,4.70
2023-01-08T03:14:05.038Z,4.78
2023-01-08T03:15:05.072Z,4.75
2023-01-08T03:16:05.062Z,4.71
2023-01-08T03:17:05.093Z,4.75
2023-01-08T03:18:05.081Z,4.74
2023-01-08T03:19:05.091Z,4.70
2023-01-08T03:20:05.121Z,4.68
2023-01-08T03:21:05.113Z,4.75
2023-01-08T03:22:05.122Z,4.70
2023-01-08T03:23:05.133Z,4.76
2023-01-08T03:24:05.143Z,4.75
2023-01-08T03:25:05.157Z,4.70
2023-01-08T03:26:05.166Z,4.75
2023-01-08T03:27:05.182Z,4.82
2023-01-08T03:28:05.180Z,4.71
2023-01-08T03:29:05.203Z,4.76
2023-01-08T03:30:05.207Z,4.71
2023-01-08T03:31:05.311Z,4.68
2023-01-08T03:32:05.232Z,4.68
2023-01-08T03:33:05.236Z,4.67
2023-01-08T03:34:05.251Z,4.75
2023-01-08T03:35:05.291Z,4.70
2023-01-08T03:36:05.267Z,4.67
2023-01-08T03:37:05.284Z,4.61
2023-01-08T03:38:05.298Z,4.75
2023-01-08T03:39:05.305Z,4.71
2023-01-08T03:40:05.322Z,4.71
2023-01-08T03:41:05.325Z,4.61
2023-01-08T03:42:05.331Z,4.60
2023-01-08T03:43:05.343Z,4.58
2023-01-08T03:44:05.349Z,4.64
2023-01-08T03:45:05.357Z,4.64
2023-01-08T03:46:05.433Z,4.61
2023-01-08T03:47:05.383Z,4.60
2023-01-08T03:48:05.390Z,4.60
2023-01-08T03:49:05.408Z,4.58
2023-01-08T03:50:05.416Z,4.53
2023-01-08T03:51:05.426Z,4.67
2023-01-08T03:52:05.430Z,4.66
2023-01-08T03:53:05.458Z,4.66
2023-01-08T03:54:05.457Z,4.63
2023-01-08T03:55:05.463Z,4.61
2023-01-08T03:56:05.485Z,4.66
2023-01-08T03:57:05.488Z,4.60
2023-01-08T03:58:05.493Z,4.56
2023-01-08T03:59:05.504Z,4.58
2023-01-08T04:00:05.511Z,4.58
2023-01-08T04:01:05.525Z,4.60
2023-01-08T04:02:05.653Z,4.53
2023-01-08T04:03:06.039Z,4.52
2023-01-08T04:04:05.575Z,4.46
2023-01-08T04:05:05.570Z,4.53
2023-01-08T04:06:05.583Z,4.56
2023-01-08T04:07:05.589Z,4.49
2023-01-08T04:08:05.608Z,4.50
2023-01-08T04:09:05.633Z,4.58
2023-01-08T04:10:05.619Z,4.56
2023-01-08T04:11:05.628Z,4.48
2023-01-08T04:12:05.639Z,4.49
2023-01-08T04:13:05.662Z,4.48
2023-01-08T04:14:05.677Z,4.48
2023-01-08T04:15:05.688Z,4.49
2023-01-08T04:16:05.746Z,4.46
2023-01-08T04:17:05.688Z,4.43
2023-01-08T04:18:05.700Z,4.43
2023-01-08T04:19:05.711Z,4.49
2023-01-08T04:20:05.718Z,4.45
2023-01-08T04:21:05.733Z,4.46
2023-01-08T04:22:05.742Z,4.42
2023-01-08T04:23:05.752Z,4.45
2023-01-08T04:24:05.761Z,4.46
2023-01-08T04:25:05.778Z,4.40
2023-01-08T04:26:05.785Z,4.45
2023-01-08T04:27:05.791Z,4.40
2023-01-08T04:28:05.802Z,4.39
2023-01-08T04:29:05.822Z,4.39
2023-01-08T04:30:05.821Z,4.42
2023-01-08T04:31:05.910Z,4.42
2023-01-08T04:32:05.844Z,4.38
2023-01-08T04:33:05.857Z,4.40
2023-01-08T04:34:05.862Z,4.40
2023-01-08T04:35:05.878Z,4.34
2023-01-08T04:36:05.891Z,4.38
2023-01-08T04:37:05.895Z,4.32
2023-01-08T04:38:05.912Z,4.43
2023-01-08T04:39:05.918Z,4.30
2023-01-08T04:40:05.922Z,4.34
2023-01-08T04:41:05.936Z,4.38
2023-01-08T04:42:05.945Z,4.30
2023-01-08T04:43:05.952Z,4.32
2023-01-08T04:44:05.964Z,4.30
2023-01-08T04:45:05.976Z,4.31
2023-01-08T04:46:06.018Z,4.39
2023-01-08T04:47:06.008Z,4.34
2023-01-08T04:48:06.008Z,4.30
2023-01-08T04:49:06.027Z,4.32
2023-01-08T04:50:06.023Z,4.32
2023-01-08T04:51:06.034Z,4.38
2023-01-08T04:52:06.059Z,4.32
2023-01-08T04:53:06.074Z,4.36
2023-01-08T04:54:06.065Z,4.43
2023-01-08T04:55:06.083Z,4.32
2023-01-08T04:56:06.103Z,4.32
2023-01-08T04:57:06.097Z,4.42
2023-01-08T04:58:06.114Z,4.36
2023-01-08T04:59:06.117Z,4.38
2023-01-08T05:00:06.139Z,4.40
2023-01-08T05:01:06.148Z,4.43
2023-01-08T05:02:06.222Z,4.46
2023-01-08T05:03:06.224Z,4.48
2023-01-08T05:04:06.179Z,4.50
2023-01-08T05:05:06.176Z,4.43
2023-01-08T05:06:06.187Z,4.53
2023-01-08T05:07:06.195Z,4.46
2023-01-08T05:08:06.204Z,4.48
2023-01-08T05:09:06.219Z,4.53
2023-01-08T05:10:06.230Z,4.50
2023-01-08T05:11:06.236Z,4.56
2023-01-08T05:12:06.251Z,4.60
2023-01-08T05:13:06.262Z,4.61
2023-01-08T05:14:06.270Z,4.61
2023-01-08T05:15:06.285Z,4.57
2023-01-08T05:16:06.337Z,4.58
2023-01-08T05:17:06.301Z,4.58
2023-01-08T05:18:06.348Z,4.74
2023-01-08T05:19:06.334Z,4.70
2023-01-08T05:20:06.333Z,4.70
2023-01-08T05:21:06.358Z,4.78
2023-01-08T05:22:06.363Z,4.71
2023-01-08T05:23:06.365Z,4.75
2023-01-08T05:24:06.373Z,4.74
2023-01-08T05:25:06.384Z,4.67
2023-01-08T05:26:06.421Z,4.78
2023-01-08T05:27:06.408Z,4.89
2023-01-08T05:28:06.415Z,4.86
2023-01-08T05:29:06.427Z,4.86
2023-01-08T05:30:06.452Z,4.92
2023-01-08T05:31:06.543Z,4.87
2023-01-08T05:32:06.457Z,4.89
2023-01-08T05:33:06.479Z,4.94
2023-01-08T05:34:06.488Z,5.01
2023-01-08T05:35:06.491Z,4.95
2023-01-08T05:36:06.504Z,5.04
2023-01-08T05:37:06.511Z,5.04
2023-01-08T05:38:06.522Z,5.07
2023-01-08T05:39:06.536Z,5.04
2023-01-08T05:40:06.542Z,5.13
2023-01-08T05:41:06.551Z,5.13
2023-01-08T05:42:06.574Z,5.16
2023-01-08T05:43:06.577Z,5.18
2023-01-08T05:44:06.590Z,5.20
2023-01-08T05:45:06.614Z,5.26
2023-01-08T05:46:06.672Z,5.22
2023-01-08T05:47:06.623Z,5.34
2023-01-08T05:48:06.639Z,5.28
2023-01-08T05:49:06.641Z,5.36
2023-01-08T05:50:06.660Z,5.36
2023-01-08T05:51:06.669Z,5.36
2023-01-08T05:52:06.675Z,5.37
2023-01-08T05:53:06.694Z,5.43
2023-01-08T05:54:06.711Z,5.47
2023-01-08T05:55:06.708Z,5.54
2023-01-08T05:56:08.898Z,5.44
2023-01-08T05:57:06.730Z,5.49
2023-01-08T05:58:06.743Z,5.52
2023-01-08T05:59:06.759Z,5.58
2023-01-08T06:00:06.762Z,5.55
2023-01-08T06:01:06.779Z,5.61
2023-01-08T06:02:06.787Z,5.67
2023-01-08T06:03:06.902Z,5.58
2023-01-08T06:04:06.879Z,5.67
2023-01-08T06:05:06.821Z,5.62
2023-01-08T06:06:06.829Z,5.61
2023-01-08T06:07:06.851Z,5.72
2023-01-08T06:08:08.510Z,5.65
2023-01-08T06:09:06.865Z,5.70
2023-01-08T06:10:06.881Z,5.77
2023-01-08T06:11:06.915Z,5.76
2023-01-08T06:12:06.906Z,5.73
2023-01-08T06:13:06.914Z,5.79
2023-01-08T06:14:06.927Z,5.84
2023-01-08T06:15:06.940Z,5.83
2023-01-08T06:16:06.988Z,5.84
2023-01-08T06:17:06.971Z,5.91
2023-01-08T06:18:06.973Z,5.90
2023-01-08T06:19:06.980Z,5.91
2023-01-08T06:20:07.012Z,5.90
2023-01-08T06:21:07.012Z,5.87
2023-01-08T06:22:07.013Z,5.95
2023-01-08T06:23:07.028Z,5.98
2023-01-08T06:24:07.039Z,5.90
2023-01-08T06:25:07.055Z,5.90
2023-01-08T06:26:07.059Z,5.98
2023-01-08T06:27:07.079Z,6.02
2023-01-08T06:28:07.107Z,5.95
2023-01-08T06:29:07.104Z,6.13
2023-01-08T06:30:07.108Z,6.12
2023-01-08T06:31:07.191Z,5.97
2023-01-08T06:32:07.137Z,5.95
2023-01-08T06:33:07.145Z,6.07
2023-01-08T06:34:07.164Z,6.06
2023-01-08T06:35:07.165Z,6.12
2023-01-08T06:36:07.173Z,6.06
2023-01-08T06:37:07.190Z,6.15
2023-01-08T06:38:07.203Z,6.15
2023-01-08T06:39:07.211Z,6.17
2023-01-08T06:40:07.223Z,6.16
2023-01-08T06:41:07.235Z,6.20
2023-01-08T06:42:07.253Z,6.19
2023-01-08T06:43:07.262Z,6.15
2023-01-08T06:44:07.280Z,6.26
2023-01-08T06:45:07.291Z,6.20
2023-01-08T06:46:07.355Z,6.22
2023-01-08T06:47:07.307Z,6.16
2023-01-08T06:48:07.323Z,6.28
2023-01-08T06:49:07.339Z,6.31
2023-01-08T06:50:07.357Z,6.26
2023-01-08T06:51:07.353Z,6.28
2023-01-08T06:52:07.369Z,6.22
2023-01-08T06:53:07.378Z,6.34
2023-01-08T06:54:07.389Z,6.26
2023-01-08T06:55:07.396Z,6.28
2023-01-08T06:56:07.425Z,6.31
2023-01-08T06:57:07.422Z,6.43
2023-01-08T06:58:07.441Z,6.29
2023-01-08T06:59:07.448Z,6.38
2023-01-08T07:00:07.471Z,6.44
2023-01-08T07:01:07.485Z,6.44
2023-01-08T07:02:07.593Z,6.41
2023-01-08T07:03:07.536Z,6.50
2023-01-08T07:04:07.509Z,6.44
2023-01-08T07:05:07.521Z,6.46
2023-01-08T07:06:07.540Z,6.43
2023-01-08T07:07:07.559Z,6.50
2023-01-08T07:08:07.560Z,6.46
2023-01-08T07:09:07.570Z,6.47
2023-01-08T07:10:07.583Z,6.54
2023-01-08T07:11:07.596Z,6.49
2023-01-08T07:12:07.603Z,6.52
2023-01-08T07:13:07.619Z,6.59
2023-01-08T07:14:07.650Z,6.59
2023-01-08T07:15:07.639Z,6.52
2023-01-08T07:16:07.700Z,6.60
2023-01-08T07:17:07.664Z,6.62
2023-01-08T07:18:07.677Z,6.62
2023-01-08T07:19:07.700Z,6.57
2023-01-08T07:20:07.708Z,6.60
2023-01-08T07:21:07.712Z,6.59
2023-01-08T07:22:07.724Z,6.57
2023-01-08T07:23:07.744Z,6.65
2023-01-08T07:24:07.746Z,6.67
2023-01-08T07:25:07.757Z,6.71
2023-01-08T07:26:07.774Z,6.65
2023-01-08T07:27:07.790Z,6.70
2023-01-08T07:28:07.797Z,6.68
2023-01-08T07:29:07.823Z,6.70
2023-01-08T07:30:11.021Z,6.74
2023-01-08T07:31:07.873Z,6.75
2023-01-08T07:32:07.844Z,6.72
2023-01-08T07:33:07.860Z,6.78
2023-01-08T07:34:07.872Z,6.85
2023-01-08T07:35:07.890Z,6.82
2023-01-08T07:36:07.897Z,6.77
2023-01-08T07:37:07.906Z,6.82
2023-01-08T07:38:07.919Z,6.86
2023-01-08T07:39:07.932Z,6.83
2023-01-08T07:40:07.942Z,6.85
2023-01-08T07:41:07.955Z,6.87
2023-01-08T07:42:07.973Z,6.80
2023-01-08T07:43:08.004Z,6.78
2023-01-08T07:44:07.989Z,6.82
2023-01-08T07:45:08.008Z,6.85
2023-01-08T07:46:08.031Z,6.85
2023-01-08T07:47:08.026Z,6.87
2023-01-08T07:48:08.034Z,6.83
2023-01-08T07:49:08.055Z,6.80
2023-01-08T07:50:08.060Z,6.85
2023-01-08T07:51:08.072Z,6.87
2023-01-08T07:52:08.084Z,6.85
2023-01-08T07:53:08.096Z,6.90
2023-01-08T07:54:08.108Z,6.82
2023-01-08T07:55:08.124Z,6.86
2023-01-08T07:56:08.127Z,6.78
2023-01-08T07:57:08.154Z,6.85
2023-01-08T07:58:08.158Z,6.83
2023-01-08T07:59:08.167Z,6.87
2023-01-08T08:00:08.178Z,6.85
2023-01-08T08:01:08.227Z,6.82
2023-01-08T08:02:08.313Z,6.95
2023-01-08T08:03:08.279Z,6.85
2023-01-08T08:04:08.226Z,6.89
2023-01-08T08:05:08.242Z,6.86
2023-01-08T08:06:08.249Z,6.92
2023-01-08T08:07:08.267Z,6.89
2023-01-08T08:08:08.275Z,6.93
2023-01-08T08:09:08.334Z,6.83
2023-01-08T08:10:08.299Z,6.83
2023-01-08T08:11:08.308Z,6.90
2023-01-08T08:12:08.323Z,6.86
2023-01-08T08:13:08.335Z,6.89
2023-01-08T08:14:08.349Z,6.92
2023-01-08T08:15:08.373Z,6.97
2023-01-08T08:16:08.414Z,6.93
2023-01-08T08:17:08.385Z,6.93
2023-01-08T08:18:08.393Z,6.96
2023-01-08T08:19:08.403Z,6.96
2023-01-08T08:20:08.415Z,6.93
2023-01-08T08:21:08.425Z,6.93
2023-01-08T08:22:08.438Z,6.93
2023-01-08T08:23:08.451Z,6.93
2023-01-08T08:24:08.464Z,6.93
2023-01-08T08:25:08.478Z,6.92
2023-01-08T08:26:08.504Z,6.95
2023-01-08T08:27:08.500Z,6.89
2023-01-08T08:28:08.510Z,7.00
2023-01-08T08:29:08.523Z,6.93
2023-01-08T08:30:08.539Z,6.92
2023-01-08T08:31:08.597Z,6.95
2023-01-08T08:32:08.560Z,6.97
2023-01-08T08:33:08.573Z,6.90
2023-01-08T08:34:08.580Z,6.95
2023-01-08T08:35:08.594Z,6.97
2023-01-08T08:36:08.612Z,6.92
2023-01-08T08:37:08.617Z,6.95
2023-01-08T08:38:08.634Z,6.92
2023-01-08T08:39:08.640Z,6.95
2023-01-08T08:40:08.668Z,6.93
2023-01-08T08:41:08.662Z,7.04
2023-01-08T08:42:08.676Z,6.97
2023-01-08T08:43:08.687Z,6.97
2023-01-08T08:44:08.698Z,7.07
2023-01-08T08:45:08.727Z,7.08
2023-01-08T08:46:08.728Z,7.07
2023-01-08T08:47:08.741Z,7.08
2023-01-08T08:48:08.745Z,7.10
2023-01-08T08:49:08.760Z,7.10
2023-01-08T08:50:08.771Z,7.11
2023-01-08T08:51:08.784Z,7.01
2023-01-08T08:52:08.794Z,7.25
2023-01-08T08:53:08.808Z,7.22
2023-01-08T08:54:08.818Z,7.05
2023-01-08T08:55:08.833Z,7.07
2023-01-08T08:56:08.846Z,7.08
2023-01-08T08:57:08.859Z,7.11
2023-01-08T08:58:08.867Z,7.13
2023-01-08T08:59:08.883Z,7.11
2023-01-08T09:00:08.903Z,7.11
2023-01-08T09:01:08.942Z,7.19
2023-01-08T09:02:09.136Z,7.22
2023-01-08T09:03:09.032Z,7.19
2023-01-08T09:04:08.943Z,7.26
2023-01-08T09:05:08.953Z,7.19
2023-01-08T09:06:08.973Z,7.21
2023-01-08T09:07:08.982Z,7.23
2023-01-08T09:08:08.997Z,7.14
2023-01-08T09:09:09.003Z,7.15
2023-01-08T09:10:09.014Z,7.19
2023-01-08T09:11:09.036Z,7.23
2023-01-08T09:12:09.082Z,7.23
2023-01-08T09:13:09.063Z,7.23
2023-01-08T09:14:09.062Z,7.28
2023-01-08T09:15:09.077Z,7.26
2023-01-08T09:16:09.127Z,7.23
2023-01-08T09:17:09.097Z,7.21
2023-01-08T09:18:09.116Z,7.26
2023-01-08T09:19:09.128Z,7.37
2023-01-08T09:20:09.138Z,7.39
2023-01-08T09:21:09.151Z,7.46
2023-01-08T09:22:09.157Z,7.37
2023-01-08T09:23:09.186Z,7.36
2023-01-08T09:24:09.185Z,7.39
2023-01-08T09:25:09.205Z,7.40
2023-01-08T09:26:09.211Z,7.47
2023-01-08T09:27:11.082Z,7.41
2023-01-08T09:28:09.236Z,7.46
2023-01-08T09:29:09.256Z,7.47
2023-01-08T09:30:09.266Z,7.55
2023-01-08T09:31:09.328Z,7.55
2023-01-08T09:32:09.299Z,7.53
2023-01-08T09:33:09.313Z,7.56
2023-01-08T09:34:09.313Z,7.55
2023-01-08T09:35:09.341Z,7.50
2023-01-08T09:36:09.342Z,7.51
2023-01-08T09:37:09.347Z,7.56
2023-01-08T09:38:09.364Z,7.53
2023-01-08T09:39:09.385Z,7.50
2023-01-08T09:40:09.390Z,7.51
2023-01-08T09:41:09.402Z,7.51
2023-01-08T09:42:09.415Z,7.50
2023-01-08T09:43:09.429Z,7.51
2023-01-08T09:44:09.451Z,7.55
2023-01-08T09:45:09.462Z,7.58
2023-01-08T09:46:09.463Z,7.58
2023-01-08T09:47:09.479Z,7.50
2023-01-08T09:48:09.487Z,7.53
2023-01-08T09:49:09.519Z,7.55
2023-01-08T09:50:09.515Z,7.58
2023-01-08T09:51:09.533Z,7.55
2023-01-08T09:52:09.537Z,7.50
2023-01-08T09:53:09.554Z,7.50
2023-01-08T09:54:09.565Z,7.53
2023-01-08T09:55:09.592Z,7.53
2023-01-08T09:56:10.775Z,7.56
2023-01-08T09:57:09.605Z,7.51
2023-01-08T09:58:09.613Z,7.53
2023-01-08T09:59:09.627Z,7.58
2023-01-08T10:00:09.638Z,7.56
2023-01-08T10:01:09.714Z,7.50
2023-01-08T10:02:09.726Z,7.53
2023-01-08T10:03:09.676Z,7.50
2023-01-08T10:04:09.695Z,7.53
2023-01-08T10:05:09.702Z,7.50
2023-01-08T10:06:09.721Z,7.55
2023-01-08T10:07:09.726Z,7.47
2023-01-08T10:08:09.737Z,7.55
2023-01-08T10:09:09.756Z,7.51
2023-01-08T10:10:09.761Z,7.50
2023-01-08T10:11:09.805Z,7.50
2023-01-08T10:12:09.785Z,7.53
2023-01-08T10:13:09.797Z,7.53
2023-01-08T10:14:09.809Z,7.53
2023-01-08T10:15:09.826Z,7.51
2023-01-08T10:16:09.857Z,7.53
2023-01-08T10:17:11.656Z,7.55
2023-01-08T10:18:09.859Z,7.47
2023-01-08T10:19:09.869Z,7.56
2023-01-08T10:20:09.901Z,7.47
2023-01-08T10:21:09.894Z,7.53
2023-01-08T10:22:09.928Z,7.51
2023-01-08T10:23:09.919Z,7.41
2023-01-08T10:24:09.932Z,7.39
2023-01-08T10:25:09.945Z,7.40
2023-01-08T10:26:09.954Z,7.43
2023-01-08T10:27:09.974Z,7.46
2023-01-08T10:28:09.978Z,7.50
2023-01-08T10:29:09.992Z,7.46
2023-01-08T10:30:10.002Z,7.53
2023-01-08T10:31:10.048Z,7.47
2023-01-08T10:32:10.029Z,7.51
2023-01-08T10:33:10.049Z,7.48
2023-01-08T10:34:10.052Z,7.48
2023-01-08T10:35:10.065Z,7.55
2023-01-08T10:36:10.083Z,7.55
2023-01-08T10:37:10.091Z,7.51
2023-01-08T10:38:10.116Z,7.51
2023-01-08T10:39:10.117Z,7.53
2023-01-08T10:40:10.124Z,7.50
2023-01-08T10:41:10.144Z,7.53
2023-01-08T10:42:10.150Z,7.53
2023-01-08T10:43:10.165Z,7.53
2023-01-08T10:44:10.174Z,7.50
2023-01-08T10:45:10.190Z,7.51
2023-01-08T10:46:10.252Z,7.50
2023-01-08T10:47:10.210Z,7.55
2023-01-08T10:48:10.224Z,7.51
2023-01-08T10:49:10.231Z,7.56
2023-01-08T10:50:10.247Z,7.58
2023-01-08T10:51:10.261Z,7.48
2023-01-08T10:52:10.269Z,7.55
2023-01-08T10:53:10.289Z,7.55
2023-01-08T10:54:10.295Z,7.58
2023-01-08T10:55:10.308Z,7.62
2023-01-08T10:56:10.320Z,7.48
2023-01-08T10:57:10.333Z,7.64
2023-01-08T10:58:10.345Z,7.56
2023-01-08T10:59:10.359Z,7.58
2023-01-08T11:00:10.371Z,7.61
2023-01-08T11:01:10.502Z,7.55
2023-01-08T11:02:10.471Z,7.61
2023-01-08T11:03:10.409Z,7.59
2023-01-08T11:04:10.421Z,7.56
2023-01-08T11:05:10.439Z,7.59
2023-01-08T11:06:10.444Z,7.66
2023-01-08T11:07:10.460Z,7.64
2023-01-08T11:08:10.479Z,7.62
2023-01-08T11:09:10.488Z,7.66
2023-01-08T11:10:10.495Z,7.66
2023-01-08T11:11:10.507Z,7.77
2023-01-08T11:12:10.531Z,7.72
2023-01-08T11:13:10.530Z,7.80
2023-01-08T11:14:10.543Z,7.80
2023-01-08T11:15:10.557Z,7.90
2023-01-08T11:16:10.755Z,7.85
2023-01-08T11:17:10.581Z,7.81
2023-01-08T11:18:10.599Z,7.96
2023-01-08T11:19:10.607Z,8.01
2023-01-08T11:20:10.625Z,8.01
2023-01-08T11:21:10.639Z,7.99
2023-01-08T11:22:10.648Z,8.08
2023-01-08T11:23:10.660Z,8.06
2023-01-08T11:24:10.675Z,8.09
2023-01-08T11:25:11.768Z,8.09
2023-01-08T11:26:10.699Z,8.11
2023-01-08T11:27:10.714Z,8.16
2023-01-08T11:28:10.726Z,8.18
2023-01-08T11:29:10.744Z,8.23
2023-01-08T11:30:10.752Z,8.23
2023-01-08T11:31:10.803Z,8.18
2023-01-08T11:32:10.788Z,8.27
2023-01-08T11:33:10.796Z,8.28
2023-01-08T11:34:10.805Z,8.26
2023-01-08T11:35:10.841Z,8.27
2023-01-08T11:36:10.831Z,8.24
2023-01-08T11:37:10.847Z,8.34
2023-01-08T11:38:10.862Z,8.23
2023-01-08T11:39:10.879Z,8.42
2023-01-08T11:40:10.884Z,8.24
2023-01-08T11:41:10.899Z,8.28
2023-01-08T11:42:10.911Z,8.27
2023-01-08T11:43:10.926Z,8.38
2023-01-08T11:44:10.939Z,8.24
2023-01-08T11:45:10.951Z,8.31
2023-01-08T11:46:10.967Z,8.28
2023-01-08T11:47:10.979Z,8.23
2023-01-08T11:48:11.783Z,8.31
2023-01-08T11:49:11.018Z,8.32
2023-01-08T11:50:11.021Z,8.32
2023-01-08T11:51:11.038Z,8.42
2023-01-08T11:52:11.047Z,8.42
2023-01-08T11:53:11.061Z,8.46
2023-01-08T11:54:12.196Z,8.49
2023-01-08T11:55:11.094Z,8.34
2023-01-08T11:56:11.102Z,8.46
2023-01-08T11:57:11.118Z,8.42
2023-01-08T11:58:11.139Z,8.44
2023-01-08T11:59:11.160Z,8.59
2023-01-08T12:00:12.588Z,8.50
2023-01-08T12:01:11.262Z,8.49
2023-01-08T12:02:11.206Z,8.45
2023-01-08T12:03:11.227Z,8.53
2023-01-08T12:04:11.209Z,8.52
2023-01-08T12:05:11.227Z,8.57
2023-01-08T12:06:11.238Z,8.60
2023-01-08T12:07:11.252Z,8.59
2023-01-08T12:08:11.269Z,8.53
2023-01-08T12:09:11.307Z,8.57
2023-01-08T12:10:11.300Z,8.59
2023-01-08T12:11:11.308Z,8.53
2023-01-08T12:12:12.157Z,8.56
2023-01-08T12:13:11.344Z,8.64
2023-01-08T12:14:11.358Z,8.66
2023-01-08T12:15:11.369Z,8.54
2023-01-08T12:16:11.398Z,8.66
2023-01-08T12:17:11.396Z,8.69
2023-01-08T12:18:11.410Z,8.72
2023-01-08T12:19:11.425Z,8.68
2023-01-08T12:20:11.435Z,8.71
2023-01-08T12:21:11.449Z,8.59
2023-01-08T12:22:11.462Z,8.63
2023-01-08T12:23:11.490Z,8.68
2023-01-08T12:24:12.061Z,8.68
2023-01-08T12:25:11.510Z,8.71
2023-01-08T12:26:11.536Z,8.74
2023-01-08T12:27:11.533Z,8.75
2023-01-08T12:28:11.547Z,8.75
2023-01-08T12:29:11.563Z,8.77
2023-01-08T12:30:11.585Z,8.78
2023-01-08T12:31:11.676Z,8.82
2023-01-08T12:32:11.695Z,8.79
2023-01-08T12:33:11.625Z,8.78
2023-01-08T12:34:11.631Z,8.72
2023-01-08T12:35:11.646Z,8.78
2023-01-08T12:36:11.664Z,8.79
2023-01-08T12:37:11.674Z,8.84
2023-01-08T12:38:11.699Z,8.89
2023-01-08T12:39:11.704Z,8.75
2023-01-08T12:40:11.718Z,8.77
2023-01-08T12:41:11.746Z,8.75
2023-01-08T12:42:11.746Z,8.71
2023-01-08T12:43:11.758Z,8.74
2023-01-08T12:44:11.781Z,8.69
2023-01-08T12:45:11.789Z,8.69
2023-01-08T12:46:11.879Z,8.68
2023-01-08T12:47:11.816Z,8.71
2023-01-08T12:48:11.829Z,8.64
2023-01-08T12:49:11.851Z,8.66
2023-01-08T12:50:11.858Z,8.69
2023-01-08T12:51:11.873Z,8.68
2023-01-08T12:52:11.889Z,8.63
2023-01-08T12:53:11.904Z,8.57
2023-01-08T12:54:11.922Z,8.59
2023-01-08T12:55:11.935Z,8.57
2023-01-08T12:56:11.942Z,8.57
2023-01-08T12:57:11.956Z,8.59
2023-01-08T12:58:11.974Z,8.66
2023-01-08T12:59:11.985Z,8.57
2023-01-08T13:00:11.995Z,8.59
2023-01-08T13:01:12.062Z,8.54
2023-01-08T13:02:12.146Z,8.46
2023-01-08T13:03:12.040Z,8.57
2023-01-08T13:04:12.059Z,8.52
2023-01-08T13:05:12.083Z,8.59
2023-01-08T13:06:12.095Z,8.49
2023-01-08T13:07:12.095Z,8.63
2023-01-08T13:08:12.107Z,8.49
2023-01-08T13:09:12.138Z,8.63
2023-01-08T13:10:12.144Z,8.46
2023-01-08T13:11:12.149Z,8.53
2023-01-08T13:12:12.164Z,8.60
2023-01-08T13:13:12.183Z,8.53
2023-01-08T13:14:12.194Z,8.52
2023-01-08T13:15:12.205Z,8.46
2023-01-08T13:16:12.266Z,8.56
2023-01-08T13:17:12.231Z,8.49
2023-01-08T13:18:12.250Z,8.44